DGMCA EDAH-EDAY
Flight info
| Callsign | DGMCA |
|---|---|
| Flight time | 1h 22m |
| Altitude | 8000 |
| Route | VFR |
| Aircraft | DA42/L-SBDGRY/S |
Departure
| Time | 2026-05-06 18:43 |
|---|---|
| Airport | Heringsdorf Airport (EDAH) |
Arrival
| Time | 2026-05-06 20:05 |
|---|---|
| Airport | Strausberg Airfield (EDAY) |
| Time | Latitude | Longitude | Altitude | Speed | Heading |
|---|---|---|---|---|---|
| 2026-05-06 18:32 | 53.87848 | 14.14283 | 86 ft | 0 kts | 208° |
| 2026-05-06 18:38 | 53.87845 | 14.14280 | 89 ft | 1 kts | 209° |
| 2026-05-06 18:39 | 53.87846 | 14.14221 | 86 ft | 12 kts | 299° |
| 2026-05-06 18:39 | 53.87899 | 14.14059 | 86 ft | 19 kts | 298° |
| 2026-05-06 18:39 | 53.87983 | 14.13887 | 84 ft | 13 kts | 2° |
| 2026-05-06 18:40 | 53.87993 | 14.13888 | 84 ft | 0 kts | 360° |
| 2026-05-06 18:42 | 53.87994 | 14.13888 | 84 ft | 1 kts | 0° |
| 2026-05-06 18:42 | 53.88051 | 14.13890 | 82 ft | 15 kts | 14° |
| 2026-05-06 18:42 | 53.88063 | 14.14079 | 82 ft | 29 kts | 104° |
| 2026-05-06 18:42 | 53.87958 | 14.14726 | 87 ft | 81 kts | 103° |
| 2026-05-06 18:43 | 53.87805 | 14.15663 | 369 ft | 83 kts | 103° |
| 2026-05-06 18:43 | 53.87655 | 14.16645 | 678 ft | 88 kts | 103° |
| 2026-05-06 18:43 | 53.87690 | 14.17707 | 889 ft | 101 kts | 46° |
| 2026-05-06 18:43 | 53.88357 | 14.17731 | 1139 ft | 104 kts | 326° |
| 2026-05-06 18:44 | 53.88926 | 14.16979 | 1423 ft | 103 kts | 315° |
| 2026-05-06 18:44 | 53.89486 | 14.16088 | 1562 ft | 114 kts | 320° |
| 2026-05-06 18:44 | 53.90110 | 14.15273 | 1725 ft | 120 kts | 324° |
| 2026-05-06 18:44 | 53.90857 | 14.14503 | 1811 ft | 130 kts | 330° |
| 2026-05-06 18:45 | 53.91665 | 14.13742 | 1931 ft | 134 kts | 332° |
| 2026-05-06 18:45 | 53.92504 | 14.13054 | 2098 ft | 133 kts | 336° |
| 2026-05-06 18:45 | 53.93377 | 14.12460 | 2190 ft | 139 kts | 338° |
| 2026-05-06 18:45 | 53.94301 | 14.11881 | 2238 ft | 144 kts | 341° |
| 2026-05-06 18:46 | 53.95251 | 14.11291 | 2304 ft | 147 kts | 339° |
| 2026-05-06 18:46 | 53.96237 | 14.10737 | 2314 ft | 152 kts | 344° |
| 2026-05-06 18:46 | 53.97253 | 14.10212 | 2328 ft | 154 kts | 340° |
| 2026-05-06 18:46 | 53.98211 | 14.09413 | 2376 ft | 153 kts | 330° |
| 2026-05-06 18:47 | 53.99145 | 14.08534 | 2427 ft | 153 kts | 331° |
| 2026-05-06 18:47 | 54.00065 | 14.07653 | 2381 ft | 159 kts | 326° |
| 2026-05-06 18:47 | 54.00914 | 14.06487 | 2539 ft | 148 kts | 319° |
| 2026-05-06 18:47 | 54.01641 | 14.05231 | 2518 ft | 155 kts | 308° |
| 2026-05-06 18:48 | 54.02252 | 14.03690 | 2504 ft | 158 kts | 303° |
| 2026-05-06 18:48 | 54.02816 | 14.02087 | 2503 ft | 158 kts | 298° |
| 2026-05-06 18:48 | 54.03309 | 14.00414 | 2503 ft | 158 kts | 297° |
| 2026-05-06 18:48 | 54.03831 | 13.98768 | 2504 ft | 158 kts | 297° |
| 2026-05-06 18:49 | 54.04289 | 13.97066 | 2504 ft | 158 kts | 291° |
| 2026-05-06 18:49 | 54.04661 | 13.95304 | 2505 ft | 158 kts | 290° |
| 2026-05-06 18:49 | 54.05104 | 13.93590 | 2503 ft | 158 kts | 297° |
| 2026-05-06 18:49 | 54.05605 | 13.91947 | 2503 ft | 158 kts | 297° |
| 2026-05-06 18:50 | 54.06116 | 13.90287 | 2504 ft | 158 kts | 298° |
| 2026-05-06 18:50 | 54.06631 | 13.88630 | 2504 ft | 159 kts | 298° |
| 2026-05-06 18:50 | 54.07150 | 13.86972 | 2503 ft | 159 kts | 298° |
| 2026-05-06 18:50 | 54.07669 | 13.85315 | 2504 ft | 159 kts | 298° |
| 2026-05-06 18:51 | 54.08189 | 13.83659 | 2503 ft | 159 kts | 298° |
| 2026-05-06 18:51 | 54.08709 | 13.82004 | 2503 ft | 159 kts | 298° |
| 2026-05-06 18:51 | 54.09229 | 13.80348 | 2503 ft | 159 kts | 298° |
| 2026-05-06 18:51 | 54.09749 | 13.78692 | 2504 ft | 158 kts | 298° |
| 2026-05-06 18:52 | 54.10412 | 13.77196 | 2503 ft | 158 kts | 311° |
| 2026-05-06 18:52 | 54.11147 | 13.75794 | 2504 ft | 158 kts | 312° |
| 2026-05-06 18:52 | 54.11886 | 13.74398 | 2504 ft | 159 kts | 312° |
| 2026-05-06 18:52 | 54.12615 | 13.73023 | 2504 ft | 159 kts | 312° |
| 2026-05-06 18:53 | 54.13355 | 13.71626 | 2503 ft | 159 kts | 312° |
| 2026-05-06 18:53 | 54.14095 | 13.70231 | 2503 ft | 159 kts | 312° |
| 2026-05-06 18:53 | 54.14835 | 13.68835 | 2504 ft | 159 kts | 312° |
| 2026-05-06 18:53 | 54.15577 | 13.67440 | 2504 ft | 159 kts | 312° |
| 2026-05-06 18:54 | 54.16318 | 13.66046 | 2505 ft | 159 kts | 312° |
| 2026-05-06 18:54 | 54.17058 | 13.64650 | 2505 ft | 159 kts | 312° |
| 2026-05-06 18:54 | 54.17797 | 13.63253 | 2505 ft | 159 kts | 312° |
| 2026-05-06 18:54 | 54.18536 | 13.61853 | 2505 ft | 159 kts | 312° |
| 2026-05-06 18:55 | 54.19275 | 13.60455 | 2505 ft | 159 kts | 312° |
| 2026-05-06 18:55 | 54.20014 | 13.59056 | 2505 ft | 159 kts | 312° |
| 2026-05-06 18:55 | 54.20743 | 13.57675 | 2505 ft | 159 kts | 312° |
| 2026-05-06 18:55 | 54.21482 | 13.56276 | 2505 ft | 159 kts | 312° |
| 2026-05-06 18:56 | 54.22220 | 13.54878 | 2505 ft | 159 kts | 312° |
| 2026-05-06 18:56 | 54.22960 | 13.53478 | 2505 ft | 159 kts | 312° |
| 2026-05-06 18:56 | 54.23699 | 13.52079 | 2505 ft | 159 kts | 312° |
| 2026-05-06 18:56 | 54.24438 | 13.50679 | 2505 ft | 159 kts | 312° |
| 2026-05-06 18:57 | 54.25178 | 13.49278 | 2505 ft | 159 kts | 312° |
| 2026-05-06 18:57 | 54.25918 | 13.47878 | 2505 ft | 159 kts | 312° |
| 2026-05-06 18:57 | 54.26657 | 13.46479 | 2505 ft | 159 kts | 312° |
| 2026-05-06 18:57 | 54.27395 | 13.45080 | 2504 ft | 157 kts | 312° |
| 2026-05-06 18:58 | 54.28122 | 13.43704 | 2293 ft | 160 kts | 312° |
| 2026-05-06 18:58 | 54.28859 | 13.42292 | 2172 ft | 155 kts | 312° |
| 2026-05-06 18:58 | 54.29598 | 13.40967 | 2055 ft | 154 kts | 316° |
| 2026-05-06 18:58 | 54.30410 | 13.39753 | 1895 ft | 154 kts | 322° |
| 2026-05-06 18:59 | 54.31278 | 13.38758 | 1882 ft | 147 kts | 328° |
| 2026-05-06 18:59 | 54.32153 | 13.37874 | 1831 ft | 145 kts | 329° |
| 2026-05-06 18:59 | 54.33004 | 13.37026 | 1841 ft | 139 kts | 330° |
| 2026-05-06 18:59 | 54.33835 | 13.36219 | 1791 ft | 137 kts | 330° |
| 2026-05-06 19:00 | 54.34629 | 13.35380 | 1796 ft | 132 kts | 327° |
| 2026-05-06 19:00 | 54.35396 | 13.34516 | 1748 ft | 133 kts | 325° |
| 2026-05-06 19:00 | 54.36138 | 13.33581 | 1721 ft | 131 kts | 322° |
| 2026-05-06 19:00 | 54.36595 | 13.32900 | 1689 ft | 132 kts | 311° |
| 2026-05-06 19:01 | 54.37151 | 13.31044 | 1598 ft | 134 kts | 291° |
| 2026-05-06 19:01 | 54.37434 | 13.29518 | 1509 ft | 137 kts | 281° |
| 2026-05-06 19:01 | 54.37589 | 13.27880 | 1350 ft | 137 kts | 287° |
| 2026-05-06 19:01 | 54.38233 | 13.27097 | 1351 ft | 124 kts | 7° |
| 2026-05-06 19:02 | 54.38805 | 13.28190 | 1036 ft | 134 kts | 85° |
| 2026-05-06 19:02 | 54.38392 | 13.29558 | 589 ft | 131 kts | 128° |
| 2026-05-06 19:02 | 54.38272 | 13.30913 | 324 ft | 108 kts | 77° |
| 2026-05-06 19:02 | 54.38334 | 13.32051 | 75 ft | 79 kts | 86° |
| 2026-05-06 19:03 | 54.38362 | 13.32783 | 78 ft | 65 kts | 86° |
| 2026-05-06 19:03 | 54.38402 | 13.33738 | 210 ft | 86 kts | 85° |
| 2026-05-06 19:03 | 54.38470 | 13.34776 | 520 ft | 89 kts | 82° |
| 2026-05-06 19:03 | 54.38598 | 13.35846 | 847 ft | 86 kts | 85° |
| 2026-05-06 19:04 | 54.38410 | 13.36873 | 1118 ft | 98 kts | 135° |
| 2026-05-06 19:04 | 54.37786 | 13.36989 | 1409 ft | 106 kts | 204° |
| 2026-05-06 19:04 | 54.37057 | 13.36410 | 1575 ft | 120 kts | 212° |
| 2026-05-06 19:04 | 54.36637 | 13.35278 | 1922 ft | 114 kts | 255° |
| 2026-05-06 19:05 | 54.36442 | 13.33910 | 2149 ft | 119 kts | 259° |
| 2026-05-06 19:05 | 54.36285 | 13.32494 | 2315 ft | 126 kts | 258° |
| 2026-05-06 19:05 | 54.36113 | 13.31058 | 2555 ft | 124 kts | 258° |
| 2026-05-06 19:05 | 54.35950 | 13.29564 | 2656 ft | 134 kts | 259° |
| 2026-05-06 19:06 | 54.35765 | 13.27966 | 2783 ft | 137 kts | 258° |
| 2026-05-06 19:06 | 54.35543 | 13.26349 | 2897 ft | 141 kts | 257° |
| 2026-05-06 19:06 | 54.35335 | 13.24684 | 2980 ft | 146 kts | 259° |
| 2026-05-06 19:06 | 54.35091 | 13.22963 | 3026 ft | 150 kts | 256° |
| 2026-05-06 19:07 | 54.34885 | 13.21197 | 3105 ft | 151 kts | 261° |
| 2026-05-06 19:07 | 54.34789 | 13.20000 | 3101 ft | 155 kts | 263° |
| 2026-05-06 19:07 | 54.34614 | 13.17567 | 3170 ft | 156 kts | 265° |
| 2026-05-06 19:07 | 54.34508 | 13.15694 | 3168 ft | 159 kts | 263° |
| 2026-05-06 19:08 | 54.34363 | 13.13818 | 3222 ft | 158 kts | 263° |
| 2026-05-06 19:08 | 54.34214 | 13.11963 | 3281 ft | 157 kts | 261° |
| 2026-05-06 19:08 | 54.34013 | 13.10109 | 3302 ft | 159 kts | 258° |
| 2026-05-06 19:08 | 54.33786 | 13.08277 | 3414 ft | 154 kts | 257° |
| 2026-05-06 19:09 | 54.33514 | 13.06518 | 3515 ft | 153 kts | 255° |
| 2026-05-06 19:09 | 54.33220 | 13.04732 | 3524 ft | 157 kts | 253° |
| 2026-05-06 19:09 | 54.32904 | 13.02949 | 3607 ft | 155 kts | 255° |
| 2026-05-06 19:09 | 54.32652 | 13.01160 | 3688 ft | 155 kts | 257° |
| 2026-05-06 19:10 | 54.32323 | 12.99359 | 3598 ft | 164 kts | 248° |
| 2026-05-06 19:10 | 54.31858 | 12.97593 | 3589 ft | 164 kts | 247° |
| 2026-05-06 19:10 | 54.31485 | 12.95743 | 3377 ft | 166 kts | 254° |
| 2026-05-06 19:10 | 54.31213 | 12.93769 | 2998 ft | 174 kts | 258° |
| 2026-05-06 19:11 | 54.30991 | 12.91751 | 2756 ft | 170 kts | 260° |
| 2026-05-06 19:11 | 54.30845 | 12.89750 | 2482 ft | 170 kts | 265° |
| 2026-05-06 19:11 | 54.30768 | 12.87697 | 2127 ft | 174 kts | 268° |
| 2026-05-06 19:11 | 54.30758 | 12.85668 | 1932 ft | 168 kts | 270° |
| 2026-05-06 19:12 | 54.30737 | 12.83669 | 1611 ft | 168 kts | 268° |
| 2026-05-06 19:12 | 54.30681 | 12.81697 | 1315 ft | 163 kts | 267° |
| 2026-05-06 19:12 | 54.30606 | 12.79829 | 1119 ft | 155 kts | 266° |
| 2026-05-06 19:12 | 54.30527 | 12.78065 | 1037 ft | 144 kts | 266° |
| 2026-05-06 19:13 | 54.30504 | 12.76386 | 938 ft | 137 kts | 270° |
| 2026-05-06 19:13 | 54.30539 | 12.74816 | 945 ft | 127 kts | 275° |
| 2026-05-06 19:13 | 54.30654 | 12.73357 | 903 ft | 124 kts | 279° |
| 2026-05-06 19:13 | 54.30779 | 12.71906 | 823 ft | 124 kts | 277° |
| 2026-05-06 19:14 | 54.30885 | 12.70511 | 842 ft | 108 kts | 277° |
| 2026-05-06 19:14 | 54.30939 | 12.69277 | 841 ft | 101 kts | 271° |
| 2026-05-06 19:14 | 54.31141 | 12.68151 | 803 ft | 98 kts | 313° |
| 2026-05-06 19:14 | 54.31737 | 12.67663 | 761 ft | 99 kts | 345° |
| 2026-05-06 19:15 | 54.32427 | 12.67351 | 666 ft | 100 kts | 345° |
| 2026-05-06 19:15 | 54.33074 | 12.67206 | 617 ft | 85 kts | 12° |
| 2026-05-06 19:15 | 54.33600 | 12.67751 | 412 ft | 87 kts | 47° |
| 2026-05-06 19:15 | 54.33834 | 12.68672 | 266 ft | 87 kts | 81° |
| 2026-05-06 19:16 | 54.33827 | 12.69715 | 66 ft | 85 kts | 94° |
| 2026-05-06 19:16 | 54.33818 | 12.70515 | 12 ft | 35 kts | 89° |
| 2026-05-06 19:16 | 54.33819 | 12.70587 | 13 ft | 0 kts | 89° |
| 2026-05-06 19:16 | 54.33820 | 12.70649 | 14 ft | 22 kts | 87° |
| 2026-05-06 19:17 | 54.33813 | 12.71238 | 21 ft | 73 kts | 91° |
| 2026-05-06 19:17 | 54.33812 | 12.72137 | 247 ft | 72 kts | 88° |
| 2026-05-06 19:17 | 54.33835 | 12.73004 | 530 ft | 73 kts | 85° |
| 2026-05-06 19:17 | 54.33839 | 12.73956 | 756 ft | 90 kts | 95° |
| 2026-05-06 19:18 | 54.33650 | 12.74960 | 1142 ft | 86 kts | 143° |
| 2026-05-06 19:18 | 54.33005 | 12.75145 | 1380 ft | 101 kts | 175° |
| 2026-05-06 19:18 | 54.32370 | 12.75550 | 1802 ft | 95 kts | 152° |
| 2026-05-06 19:18 | 54.31759 | 12.76145 | 2073 ft | 106 kts | 150° |
| 2026-05-06 19:19 | 54.31093 | 12.76788 | 2357 ft | 114 kts | 152° |
| 2026-05-06 19:19 | 54.30379 | 12.77461 | 2637 ft | 120 kts | 152° |
| 2026-05-06 19:19 | 54.29586 | 12.77983 | 2917 ft | 125 kts | 171° |
| 2026-05-06 19:19 | 54.28755 | 12.77699 | 3197 ft | 128 kts | 214° |
| 2026-05-06 19:20 | 54.28041 | 12.76791 | 3467 ft | 131 kts | 200° |
| 2026-05-06 19:20 | 54.27135 | 12.76773 | 3746 ft | 133 kts | 167° |
| 2026-05-06 19:20 | 54.26265 | 12.77333 | 4021 ft | 135 kts | 158° |
| 2026-05-06 19:20 | 54.25403 | 12.77975 | 4296 ft | 136 kts | 156° |
| 2026-05-06 19:21 | 54.24541 | 12.78659 | 4570 ft | 137 kts | 155° |
| 2026-05-06 19:21 | 54.23679 | 12.79361 | 4845 ft | 138 kts | 155° |
| 2026-05-06 19:21 | 54.22813 | 12.80070 | 5124 ft | 138 kts | 155° |
| 2026-05-06 19:21 | 54.21942 | 12.80785 | 5395 ft | 139 kts | 155° |
| 2026-05-06 19:22 | 54.21069 | 12.81502 | 5667 ft | 140 kts | 155° |
| 2026-05-06 19:22 | 54.20204 | 12.82211 | 5941 ft | 140 kts | 155° |
| 2026-05-06 19:22 | 54.19325 | 12.82932 | 6216 ft | 140 kts | 155° |
| 2026-05-06 19:22 | 54.18442 | 12.83655 | 6481 ft | 142 kts | 155° |
| 2026-05-06 19:23 | 54.17497 | 12.84427 | 6493 ft | 159 kts | 155° |
| 2026-05-06 19:23 | 54.16490 | 12.85252 | 6669 ft | 158 kts | 154° |
| 2026-05-06 19:23 | 54.15515 | 12.86051 | 6943 ft | 153 kts | 154° |
| 2026-05-06 19:23 | 54.14565 | 12.86828 | 7218 ft | 150 kts | 155° |
| 2026-05-06 19:24 | 54.13630 | 12.87592 | 7483 ft | 149 kts | 155° |
| 2026-05-06 19:24 | 54.12647 | 12.88394 | 7491 ft | 164 kts | 155° |
| 2026-05-06 19:24 | 54.11605 | 12.89245 | 7492 ft | 172 kts | 154° |
| 2026-05-06 19:24 | 54.10508 | 12.90141 | 7490 ft | 177 kts | 154° |
| 2026-05-06 19:25 | 54.09387 | 12.91053 | 7491 ft | 180 kts | 154° |
| 2026-05-06 19:25 | 54.08252 | 12.91977 | 7491 ft | 181 kts | 154° |
| 2026-05-06 19:25 | 54.07110 | 12.92907 | 7490 ft | 182 kts | 154° |
| 2026-05-06 19:25 | 54.05964 | 12.93840 | 7492 ft | 183 kts | 154° |
| 2026-05-06 19:26 | 54.04817 | 12.94774 | 7492 ft | 183 kts | 154° |
| 2026-05-06 19:26 | 54.03666 | 12.95710 | 7492 ft | 183 kts | 154° |
| 2026-05-06 19:26 | 54.02515 | 12.96645 | 7492 ft | 183 kts | 154° |
| 2026-05-06 19:26 | 54.01364 | 12.97579 | 7492 ft | 183 kts | 155° |
| 2026-05-06 19:27 | 54.00240 | 12.98486 | 7492 ft | 179 kts | 154° |
| 2026-05-06 19:27 | 53.99133 | 12.99387 | 7493 ft | 175 kts | 154° |
| 2026-05-06 19:27 | 53.98040 | 13.00277 | 7494 ft | 173 kts | 154° |
| 2026-05-06 19:27 | 53.96957 | 13.01155 | 7494 ft | 172 kts | 154° |
| 2026-05-06 19:28 | 53.95878 | 13.02029 | 7494 ft | 171 kts | 154° |
| 2026-05-06 19:28 | 53.94803 | 13.02897 | 7494 ft | 171 kts | 154° |
| 2026-05-06 19:28 | 53.93728 | 13.03766 | 7494 ft | 171 kts | 154° |
| 2026-05-06 19:28 | 53.92657 | 13.04632 | 7494 ft | 171 kts | 154° |
| 2026-05-06 19:29 | 53.91599 | 13.05486 | 7495 ft | 171 kts | 154° |
| 2026-05-06 19:29 | 53.90529 | 13.06349 | 7495 ft | 170 kts | 154° |
| 2026-05-06 19:29 | 53.89457 | 13.07213 | 7495 ft | 170 kts | 154° |
| 2026-05-06 19:29 | 53.88387 | 13.08076 | 7495 ft | 170 kts | 155° |
| 2026-05-06 19:30 | 53.87317 | 13.08938 | 7495 ft | 170 kts | 155° |
| 2026-05-06 19:30 | 53.86246 | 13.09801 | 7495 ft | 170 kts | 154° |
| 2026-05-06 19:30 | 53.85175 | 13.10664 | 7495 ft | 170 kts | 154° |
| 2026-05-06 19:30 | 53.84105 | 13.11524 | 7495 ft | 170 kts | 154° |
| 2026-05-06 19:31 | 53.83034 | 13.12385 | 7495 ft | 170 kts | 155° |
| 2026-05-06 19:31 | 53.81964 | 13.13245 | 7495 ft | 170 kts | 154° |
| 2026-05-06 19:31 | 53.79837 | 13.14953 | 7495 ft | 170 kts | 155° |
| 2026-05-06 19:32 | 53.78765 | 13.15812 | 7495 ft | 170 kts | 155° |
| 2026-05-06 19:32 | 53.77694 | 13.16670 | 7495 ft | 170 kts | 155° |
| 2026-05-06 19:32 | 53.76623 | 13.17529 | 7495 ft | 170 kts | 155° |
| 2026-05-06 19:32 | 53.75553 | 13.18385 | 7495 ft | 170 kts | 155° |
| 2026-05-06 19:33 | 53.74481 | 13.19243 | 7495 ft | 170 kts | 155° |
| 2026-05-06 19:33 | 53.73410 | 13.20100 | 7495 ft | 170 kts | 155° |
| 2026-05-06 19:33 | 53.72338 | 13.20957 | 7495 ft | 170 kts | 155° |
| 2026-05-06 19:33 | 53.71281 | 13.21801 | 7495 ft | 170 kts | 155° |
| 2026-05-06 19:34 | 53.70211 | 13.22656 | 7495 ft | 170 kts | 155° |
| 2026-05-06 19:34 | 53.69139 | 13.23511 | 7495 ft | 170 kts | 155° |
| 2026-05-06 19:34 | 53.68067 | 13.24366 | 7495 ft | 170 kts | 155° |
| 2026-05-06 19:34 | 53.66995 | 13.25220 | 7495 ft | 170 kts | 155° |
| 2026-05-06 19:35 | 53.65924 | 13.26073 | 7495 ft | 170 kts | 155° |
| 2026-05-06 19:35 | 53.64852 | 13.26927 | 7495 ft | 170 kts | 155° |
| 2026-05-06 19:35 | 53.63780 | 13.27780 | 7495 ft | 170 kts | 155° |
| 2026-05-06 19:35 | 53.62708 | 13.28633 | 7495 ft | 170 kts | 155° |
| 2026-05-06 19:36 | 53.61636 | 13.29485 | 7495 ft | 170 kts | 155° |
| 2026-05-06 19:36 | 53.60564 | 13.30337 | 7495 ft | 170 kts | 155° |
| 2026-05-06 19:36 | 53.59464 | 13.31000 | 7492 ft | 170 kts | 163° |
| 2026-05-06 19:36 | 53.58333 | 13.31589 | 7495 ft | 170 kts | 163° |
| 2026-05-06 19:37 | 53.57200 | 13.32178 | 7495 ft | 170 kts | 163° |
| 2026-05-06 19:37 | 53.56067 | 13.32766 | 7495 ft | 170 kts | 163° |
| 2026-05-06 19:37 | 53.54935 | 13.33352 | 7495 ft | 170 kts | 163° |
| 2026-05-06 19:37 | 53.54184 | 13.33740 | 7495 ft | 170 kts | 163° |
| 2026-05-06 19:38 | 53.52668 | 13.34525 | 7495 ft | 170 kts | 163° |
| 2026-05-06 19:38 | 53.51535 | 13.35112 | 7495 ft | 170 kts | 163° |
| 2026-05-06 19:38 | 53.50401 | 13.35698 | 7495 ft | 170 kts | 163° |
| 2026-05-06 19:38 | 53.49268 | 13.36284 | 7495 ft | 170 kts | 163° |
| 2026-05-06 19:39 | 53.48150 | 13.36861 | 7495 ft | 170 kts | 163° |
| 2026-05-06 19:39 | 53.47017 | 13.37447 | 7495 ft | 170 kts | 163° |
| 2026-05-06 19:39 | 53.45883 | 13.38032 | 7495 ft | 170 kts | 163° |
| 2026-05-06 19:39 | 53.44749 | 13.38617 | 7495 ft | 170 kts | 163° |
| 2026-05-06 19:40 | 53.43616 | 13.39201 | 7495 ft | 170 kts | 163° |
| 2026-05-06 19:40 | 53.42482 | 13.39785 | 7495 ft | 170 kts | 163° |
| 2026-05-06 19:40 | 53.41349 | 13.40369 | 7495 ft | 170 kts | 163° |
| 2026-05-06 19:40 | 53.40216 | 13.40952 | 7496 ft | 170 kts | 163° |
| 2026-05-06 19:41 | 53.39081 | 13.41535 | 7495 ft | 170 kts | 163° |
| 2026-05-06 19:41 | 53.38331 | 13.41921 | 7496 ft | 170 kts | 163° |
| 2026-05-06 19:41 | 53.37197 | 13.42504 | 7495 ft | 170 kts | 163° |
| 2026-05-06 19:41 | 53.35695 | 13.43275 | 7496 ft | 170 kts | 163° |
| 2026-05-06 19:42 | 53.34561 | 13.43857 | 7496 ft | 171 kts | 163° |
| 2026-05-06 19:42 | 53.33427 | 13.44439 | 7496 ft | 170 kts | 163° |
| 2026-05-06 19:42 | 53.32293 | 13.45020 | 7496 ft | 170 kts | 163° |
| 2026-05-06 19:42 | 53.31542 | 13.45405 | 7494 ft | 170 kts | 163° |
| 2026-05-06 19:43 | 53.30408 | 13.45985 | 7496 ft | 170 kts | 163° |
| 2026-05-06 19:43 | 53.29274 | 13.46565 | 7493 ft | 170 kts | 163° |
| 2026-05-06 19:43 | 53.28140 | 13.47146 | 7496 ft | 170 kts | 163° |
| 2026-05-06 19:43 | 53.27006 | 13.47726 | 7494 ft | 170 kts | 163° |
| 2026-05-06 19:44 | 53.25872 | 13.48305 | 7493 ft | 170 kts | 163° |
| 2026-05-06 19:44 | 53.24738 | 13.48885 | 7496 ft | 170 kts | 163° |
| 2026-05-06 19:44 | 53.23236 | 13.49651 | 7496 ft | 170 kts | 163° |
| 2026-05-06 19:44 | 53.22470 | 13.50042 | 7494 ft | 170 kts | 163° |
| 2026-05-06 19:45 | 53.21336 | 13.50621 | 7493 ft | 170 kts | 163° |
| 2026-05-06 19:45 | 53.20217 | 13.51191 | 7496 ft | 171 kts | 163° |
| 2026-05-06 19:45 | 53.19082 | 13.51768 | 7496 ft | 171 kts | 163° |
| 2026-05-06 19:45 | 53.17947 | 13.52346 | 7489 ft | 171 kts | 163° |
| 2026-05-06 19:46 | 53.16812 | 13.52924 | 7496 ft | 171 kts | 163° |
| 2026-05-06 19:46 | 53.15678 | 13.53501 | 7496 ft | 170 kts | 163° |
| 2026-05-06 19:46 | 53.14543 | 13.54078 | 7496 ft | 170 kts | 163° |
| 2026-05-06 19:46 | 53.13409 | 13.54653 | 7496 ft | 170 kts | 163° |
| 2026-05-06 19:47 | 53.11907 | 13.55417 | 7493 ft | 170 kts | 163° |
| 2026-05-06 19:47 | 53.11141 | 13.55806 | 7496 ft | 170 kts | 163° |
| 2026-05-06 19:47 | 53.10005 | 13.56381 | 7496 ft | 170 kts | 163° |
| 2026-05-06 19:47 | 53.08888 | 13.56947 | 7491 ft | 170 kts | 163° |
| 2026-05-06 19:48 | 53.07753 | 13.57522 | 7491 ft | 170 kts | 163° |
| 2026-05-06 19:48 | 53.06620 | 13.58096 | 7496 ft | 170 kts | 163° |
| 2026-05-06 19:48 | 53.05485 | 13.58670 | 7496 ft | 170 kts | 163° |
| 2026-05-06 19:48 | 53.04351 | 13.59243 | 7496 ft | 170 kts | 163° |
| 2026-05-06 19:49 | 53.03217 | 13.59816 | 7496 ft | 170 kts | 163° |
| 2026-05-06 19:49 | 53.02083 | 13.60389 | 7496 ft | 170 kts | 163° |
| 2026-05-06 19:49 | 53.00948 | 13.60962 | 7496 ft | 170 kts | 163° |
| 2026-05-06 19:49 | 52.99813 | 13.61535 | 7496 ft | 170 kts | 163° |
| 2026-05-06 19:50 | 52.98680 | 13.62107 | 7495 ft | 170 kts | 163° |
| 2026-05-06 19:50 | 52.97509 | 13.62697 | 7277 ft | 181 kts | 163° |
| 2026-05-06 19:50 | 52.96311 | 13.63293 | 7048 ft | 179 kts | 163° |
| 2026-05-06 19:50 | 52.95142 | 13.63880 | 6827 ft | 177 kts | 163° |
| 2026-05-06 19:51 | 52.93964 | 13.64476 | 6602 ft | 177 kts | 163° |
| 2026-05-06 19:51 | 52.92792 | 13.65068 | 6370 ft | 176 kts | 163° |
| 2026-05-06 19:51 | 52.91623 | 13.65657 | 6152 ft | 175 kts | 163° |
| 2026-05-06 19:51 | 52.90458 | 13.66243 | 5927 ft | 175 kts | 163° |
| 2026-05-06 19:52 | 52.89296 | 13.66829 | 5702 ft | 174 kts | 163° |
| 2026-05-06 19:52 | 52.88138 | 13.67411 | 5503 ft | 172 kts | 163° |
| 2026-05-06 19:52 | 52.87030 | 13.67968 | 5508 ft | 161 kts | 163° |
| 2026-05-06 19:52 | 52.85995 | 13.68489 | 5509 ft | 154 kts | 163° |
| 2026-05-06 19:53 | 52.84969 | 13.69005 | 5508 ft | 150 kts | 163° |
| 2026-05-06 19:53 | 52.83989 | 13.69499 | 5508 ft | 148 kts | 163° |
| 2026-05-06 19:53 | 52.83009 | 13.69993 | 5507 ft | 147 kts | 163° |
| 2026-05-06 19:53 | 52.82037 | 13.70483 | 5507 ft | 145 kts | 163° |
| 2026-05-06 19:54 | 52.81072 | 13.70970 | 5507 ft | 145 kts | 163° |
| 2026-05-06 19:54 | 52.80109 | 13.71456 | 5507 ft | 144 kts | 163° |
| 2026-05-06 19:54 | 52.79148 | 13.71941 | 5507 ft | 144 kts | 163° |
| 2026-05-06 19:54 | 52.78189 | 13.72425 | 5507 ft | 144 kts | 163° |
| 2026-05-06 19:55 | 52.77244 | 13.72902 | 5507 ft | 144 kts | 163° |
| 2026-05-06 19:55 | 52.76286 | 13.73385 | 5507 ft | 144 kts | 163° |
| 2026-05-06 19:55 | 52.75327 | 13.73869 | 5507 ft | 144 kts | 163° |
| 2026-05-06 19:55 | 52.74371 | 13.74351 | 5507 ft | 144 kts | 163° |
| 2026-05-06 19:56 | 52.73411 | 13.74835 | 5469 ft | 147 kts | 163° |
| 2026-05-06 19:56 | 52.72400 | 13.75343 | 5288 ft | 156 kts | 163° |
| 2026-05-06 19:56 | 52.71344 | 13.75874 | 5112 ft | 161 kts | 163° |
| 2026-05-06 19:56 | 52.70258 | 13.76420 | 4883 ft | 166 kts | 163° |
| 2026-05-06 19:57 | 52.69236 | 13.77268 | 4624 ft | 171 kts | 135° |
| 2026-05-06 19:57 | 52.68593 | 13.78908 | 4377 ft | 172 kts | 117° |
| 2026-05-06 19:57 | 52.68071 | 13.80682 | 4134 ft | 172 kts | 115° |
| 2026-05-06 19:57 | 52.67560 | 13.82471 | 3881 ft | 173 kts | 115° |
| 2026-05-06 19:58 | 52.67049 | 13.84263 | 3628 ft | 172 kts | 115° |
| 2026-05-06 19:58 | 52.66546 | 13.86024 | 3383 ft | 168 kts | 115° |
| 2026-05-06 19:58 | 52.66055 | 13.87746 | 3132 ft | 165 kts | 115° |
| 2026-05-06 19:58 | 52.65570 | 13.89447 | 2882 ft | 163 kts | 115° |
| 2026-05-06 19:59 | 52.65090 | 13.91132 | 2632 ft | 162 kts | 115° |
| 2026-05-06 19:59 | 52.64620 | 13.92786 | 2386 ft | 161 kts | 115° |
| 2026-05-06 19:59 | 52.64146 | 13.94454 | 2136 ft | 161 kts | 115° |
| 2026-05-06 19:59 | 52.63680 | 13.96099 | 2004 ft | 153 kts | 115° |
| 2026-05-06 20:00 | 52.63249 | 13.97622 | 2005 ft | 142 kts | 115° |
| 2026-05-06 20:00 | 52.62777 | 13.98983 | 2029 ft | 133 kts | 126° |
| 2026-05-06 20:00 | 52.62172 | 14.00149 | 1929 ft | 136 kts | 133° |
| 2026-05-06 20:00 | 52.61499 | 14.01236 | 1910 ft | 131 kts | 146° |
| 2026-05-06 20:01 | 52.60695 | 14.01631 | 2047 ft | 119 kts | 181° |
| 2026-05-06 20:01 | 52.59890 | 14.01258 | 1985 ft | 123 kts | 211° |
| 2026-05-06 20:01 | 52.59225 | 14.00318 | 1790 ft | 138 kts | 224° |
| 2026-05-06 20:01 | 52.58495 | 13.99224 | 1594 ft | 144 kts | 220° |
| 2026-05-06 20:02 | 52.57708 | 13.98290 | 1533 ft | 126 kts | 214° |
| 2026-05-06 20:02 | 52.57033 | 13.97495 | 1416 ft | 111 kts | 219° |
| 2026-05-06 20:02 | 52.56443 | 13.96693 | 1254 ft | 109 kts | 221° |
| 2026-05-06 20:02 | 52.55873 | 13.95885 | 1114 ft | 106 kts | 221° |
| 2026-05-06 20:03 | 52.55361 | 13.95069 | 1047 ft | 101 kts | 224° |
| 2026-05-06 20:03 | 52.54929 | 13.94229 | 1039 ft | 94 kts | 243° |
| 2026-05-06 20:03 | 52.54878 | 13.93178 | 996 ft | 93 kts | 277° |
| 2026-05-06 20:03 | 52.55025 | 13.92164 | 974 ft | 91 kts | 298° |
| 2026-05-06 20:04 | 52.55346 | 13.91249 | 915 ft | 94 kts | 299° |
| 2026-05-06 20:04 | 52.55658 | 13.90295 | 857 ft | 94 kts | 301° |
| 2026-05-06 20:04 | 52.56059 | 13.89447 | 801 ft | 95 kts | 319° |
| 2026-05-06 20:04 | 52.56650 | 13.89107 | 769 ft | 92 kts | 13° |
| 2026-05-06 20:05 | 52.57085 | 13.89874 | 588 ft | 96 kts | 57° |
| 2026-05-06 20:05 | 52.57496 | 13.90620 | 351 ft | 76 kts | 49° |
| 2026-05-06 20:05 | 52.57769 | 13.91152 | 262 ft | 41 kts | 50° |
| 2026-05-06 20:05 | 52.57821 | 13.91250 | 262 ft | 0 kts | 38° |
| 2026-05-06 20:06 | 52.57853 | 13.91300 | 262 ft | 16 kts | 47° |
| 2026-05-06 20:06 | 52.57953 | 13.91338 | 263 ft | 19 kts | 347° |
| 2026-05-06 20:06 | 52.58116 | 13.91305 | 263 ft | 23 kts | 353° |
| 2026-05-06 20:06 | 52.58259 | 13.91270 | 263 ft | 19 kts | 353° |
| 2026-05-06 20:07 | 52.58379 | 13.91242 | 263 ft | 16 kts | 350° |
| 2026-05-06 20:07 | 52.58469 | 13.91225 | 263 ft | 5 kts | 49° |
| 2026-05-06 20:07 | 52.58480 | 13.91278 | 264 ft | 8 kts | 70° |
| 2026-05-06 20:07 | 52.58517 | 13.91364 | 264 ft | 10 kts | 354° |
| 2026-05-06 20:08 | 52.58533 | 13.91356 | 264 ft | 0 kts | 337° |